sensor_id;sensor_type;location;lat;lon;timestamp;pressure;altitude;pressure_sealevel;temperature;humidity
66560;BME280;53413;49.878;8.142;2024-03-17T00:00:20;100778.44;;;6.81;100.00
66560;BME280;53413;49.878;8.142;2024-03-17T00:02:46;100773.25;;;6.81;100.00
66560;BME280;53413;49.878;8.142;2024-03-17T00:05:12;100780.25;;;6.78;100.00
66560;BME280;53413;49.878;8.142;2024-03-17T00:07:38;100788.88;;;6.82;100.00
66560;BME280;53413;49.878;8.142;2024-03-17T00:10:04;100787.97;;;6.85;100.00
66560;BME280;53413;49.878;8.142;2024-03-17T00:12:29;100782.75;;;6.88;100.00
66560;BME280;53413;49.878;8.142;2024-03-17T00:14:55;100775.78;;;6.88;100.00
66560;BME280;53413;49.878;8.142;2024-03-17T00:17:20;100765.41;;;6.85;100.00
66560;BME280;53413;49.878;8.142;2024-03-17T00:19:46;100768.00;;;6.84;100.00
66560;BME280;53413;49.878;8.142;2024-03-17T00:22:11;100764.56;;;6.82;100.00
66560;BME280;53413;49.878;8.142;2024-03-17T00:24:39;100761.09;;;6.80;100.00
66560;BME280;53413;49.878;8.142;2024-03-17T00:27:05;100765.50;;;6.74;100.00
66560;BME280;53413;49.878;8.142;2024-03-17T00:29:30;100764.72;;;6.66;100.00
66560;BME280;53413;49.878;8.142;2024-03-17T00:31:56;100765.66;;;6.59;100.00
66560;BME280;53413;49.878;8.142;2024-03-17T00:34:22;100763.13;;;6.50;100.00
66560;BME280;53413;49.878;8.142;2024-03-17T00:36:47;100761.50;;;6.39;100.00
66560;BME280;53413;49.878;8.142;2024-03-17T00:39:12;100764.19;;;6.30;100.00
66560;BME280;53413;49.878;8.142;2024-03-17T00:41:39;100759.91;;;6.23;100.00
66560;BME280;53413;49.878;8.142;2024-03-17T00:44:05;100751.28;;;6.16;100.00
66560;BME280;53413;49.878;8.142;2024-03-17T00:46:31;100744.44;;;6.07;100.00
66560;BME280;53413;49.878;8.142;2024-03-17T00:48:59;100744.50;;;5.95;100.00
66560;BME280;53413;49.878;8.142;2024-03-17T00:51:25;100747.19;;;5.79;100.00
66560;BME280;53413;49.878;8.142;2024-03-17T00:53:51;100745.53;;;5.66;100.00
66560;BME280;53413;49.878;8.142;2024-03-17T00:56:16;100743.00;;;5.50;100.00
66560;BME280;53413;49.878;8.142;2024-03-17T00:58:41;100744.84;;;5.33;100.00
66560;BME280;53413;49.878;8.142;2024-03-17T01:01:07;100741.47;;;5.17;100.00
66560;BME280;53413;49.878;8.142;2024-03-17T01:03:33;100746.69;;;5.00;100.00
66560;BME280;53413;49.878;8.142;2024-03-17T01:05:58;100745.91;;;4.85;100.00
66560;BME280;53413;49.878;8.142;2024-03-17T01:08:24;100741.59;;;4.69;100.00
66560;BME280;53413;49.878;8.142;2024-03-17T01:10:49;100745.09;;;4.57;100.00
66560;BME280;53413;49.878;8.142;2024-03-17T01:13:15;100738.19;;;4.43;100.00
66560;BME280;53413;49.878;8.142;2024-03-17T01:15:41;100740.78;;;4.32;100.00
66560;BME280;53413;49.878;8.142;2024-03-17T01:18:07;100743.38;;;4.25;100.00
66560;BME280;53413;49.878;8.142;2024-03-17T01:20:34;100737.31;;;4.13;100.00
66560;BME280;53413;49.878;8.142;2024-03-17T01:22:59;100739.06;;;4.05;100.00
66560;BME280;53413;49.878;8.142;2024-03-17T01:25:25;100737.31;;;3.98;100.00
66560;BME280;53413;49.878;8.142;2024-03-17T01:27:51;100734.75;;;3.99;100.00
66560;BME280;53413;49.878;8.142;2024-03-17T01:30:17;100733.00;;;4.03;100.00
66560;BME280;53413;49.878;8.142;2024-03-17T01:32:42;100730.41;;;4.08;100.00
66560;BME280;53413;49.878;8.142;2024-03-17T01:35:08;100726.97;;;4.09;100.00
66560;BME280;53413;49.878;8.142;2024-03-17T01:37:33;100728.69;;;4.08;100.00
66560;BME280;53413;49.878;8.142;2024-03-17T01:39:59;100730.41;;;4.05;100.00
66560;BME280;53413;49.878;8.142;2024-03-17T01:42:24;100720.06;;;3.97;100.00
66560;BME280;53413;49.878;8.142;2024-03-17T01:44:50;100717.44;;;3.89;100.00
66560;BME280;53413;49.878;8.142;2024-03-17T01:47:16;100716.56;;;3.81;100.00
66560;BME280;53413;49.878;8.142;2024-03-17T01:49:45;100717.44;;;3.74;100.00
66560;BME280;53413;49.878;8.142;2024-03-17T01:52:11;100707.03;;;3.67;100.00
66560;BME280;53413;49.878;8.142;2024-03-17T01:54:36;100713.09;;;3.66;100.00
66560;BME280;53413;49.878;8.142;2024-03-17T01:57:03;100709.66;;;3.64;100.00
66560;BME280;53413;49.878;8.142;2024-03-17T01:59:29;100713.09;;;3.63;100.00
66560;BME280;53413;49.878;8.142;2024-03-17T02:01:54;100709.63;;;3.61;100.00
66560;BME280;53413;49.878;8.142;2024-03-17T02:04:19;100707.91;;;3.63;100.00
66560;BME280;53413;49.878;8.142;2024-03-17T02:06:47;100713.09;;;3.63;100.00
66560;BME280;53413;49.878;8.142;2024-03-17T02:09:12;100706.19;;;3.65;100.00
66560;BME280;53413;49.878;8.142;2024-03-17T02:11:38;100710.50;;;3.63;100.00
66560;BME280;53413;49.878;8.142;2024-03-17T02:14:03;100706.16;;;3.64;100.00
66560;BME280;53413;49.878;8.142;2024-03-17T02:16:28;100702.72;;;3.59;100.00
66560;BME280;53413;49.878;8.142;2024-03-17T02:18:55;100701.84;;;3.53;100.00
66560;BME280;53413;49.878;8.142;2024-03-17T02:21:21;100698.38;;;3.47;100.00
66560;BME280;53413;49.878;8.142;2024-03-17T02:23:48;100700.09;;;3.42;100.00
66560;BME280;53413;49.878;8.142;2024-03-17T02:26:13;100700.06;;;3.35;100.00
66560;BME280;53413;49.878;8.142;2024-03-17T02:28:43;100700.91;;;3.30;100.00
66560;BME280;53413;49.878;8.142;2024-03-17T02:31:10;100701.78;;;3.27;100.00
66560;BME280;53413;49.878;8.142;2024-03-17T02:33:36;100691.44;;;3.27;100.00
66560;BME280;53413;49.878;8.142;2024-03-17T02:36:03;100700.06;;;3.29;100.00
66560;BME280;53413;49.878;8.142;2024-03-17T02:38:35;100700.06;;;3.32;100.00
66560;BME280;53413;49.878;8.142;2024-03-17T02:41:20;100695.75;;;3.37;100.00
66560;BME280;53413;49.878;8.142;2024-03-17T02:43:46;100693.19;;;3.41;100.00
66560;BME280;53413;49.878;8.142;2024-03-17T02:46:12;100695.75;;;3.44;100.00
66560;BME280;53413;49.878;8.142;2024-03-17T02:48:41;100691.47;;;3.49;100.00
66560;BME280;53413;49.878;8.142;2024-03-17T02:51:14;100691.47;;;3.55;100.00
66560;BME280;53413;49.878;8.142;2024-03-17T02:53:41;100690.59;;;3.56;100.00
66560;BME280;53413;49.878;8.142;2024-03-17T02:56:06;100688.03;;;3.53;100.00
66560;BME280;53413;49.878;8.142;2024-03-17T02:58:34;100687.16;;;3.43;100.00
66560;BME280;53413;49.878;8.142;2024-03-17T03:01:00;100683.66;;;3.33;100.00
66560;BME280;53413;49.878;8.142;2024-03-17T03:03:25;100676.72;;;3.23;100.00
66560;BME280;53413;49.878;8.142;2024-03-17T03:05:50;100676.72;;;3.12;100.00
66560;BME280;53413;49.878;8.142;2024-03-17T03:08:17;100678.41;;;3.05;100.00
66560;BME280;53413;49.878;8.142;2024-03-17T03:10:44;100682.72;;;3.03;100.00
66560;BME280;53413;49.878;8.142;2024-03-17T03:13:10;100691.31;;;2.99;100.00
66560;BME280;53413;49.878;8.142;2024-03-17T03:15:36;100683.53;;;2.95;100.00
66560;BME280;53413;49.878;8.142;2024-03-17T03:18:01;100685.25;;;2.88;100.00
66560;BME280;53413;49.878;8.142;2024-03-17T03:20:27;100680.91;;;2.81;100.00
66560;BME280;53413;49.878;8.142;2024-03-17T03:22:53;100679.97;;;2.72;100.00
66560;BME280;53413;49.878;8.142;2024-03-17T03:25:19;100685.13;;;2.63;100.00
66560;BME280;53413;49.878;8.142;2024-03-17T03:27:44;100683.34;;;2.54;100.00
66560;BME280;53413;49.878;8.142;2024-03-17T03:30:10;100681.59;;;2.45;100.00
66560;BME280;53413;49.878;8.142;2024-03-17T03:32:35;100682.38;;;2.38;100.00
66560;BME280;53413;49.878;8.142;2024-03-17T03:35:04;100688.38;;;2.33;100.00
66560;BME280;53413;49.878;8.142;2024-03-17T03:37:30;100686.63;;;2.25;100.00
66560;BME280;53413;49.878;8.142;2024-03-17T03:39:56;100689.19;;;2.22;100.00
66560;BME280;53413;49.878;8.142;2024-03-17T03:42:21;100692.63;;;2.20;100.00
66560;BME280;53413;49.878;8.142;2024-03-17T03:44:48;100694.31;;;2.14;100.00
66560;BME280;53413;49.878;8.142;2024-03-17T03:47:14;100687.41;;;2.10;100.00
66560;BME280;53413;49.878;8.142;2024-03-17T03:49:40;100693.38;;;2.06;100.00
66560;BME280;53413;49.878;8.142;2024-03-17T03:52:05;100687.31;;;2.01;100.00
66560;BME280;53413;49.878;8.142;2024-03-17T03:54:31;100689.88;;;1.98;100.00
66560;BME280;53413;49.878;8.142;2024-03-17T03:56:56;100694.13;;;1.93;100.00
66560;BME280;53413;49.878;8.142;2024-03-17T03:59:21;100694.97;;;1.90;100.00
66560;BME280;53413;49.878;8.142;2024-03-17T04:01:47;100697.53;;;1.86;100.00
66560;BME280;53413;49.878;8.142;2024-03-17T04:04:15;100693.16;;;1.78;100.00
66560;BME280;53413;49.878;8.142;2024-03-17T04:06:41;100699.13;;;1.73;100.00
66560;BME280;53413;49.878;8.142;2024-03-17T04:09:06;100705.09;;;1.65;100.00
66560;BME280;53413;49.878;8.142;2024-03-17T04:11:33;100700.75;;;1.60;100.00
66560;BME280;53413;49.878;8.142;2024-03-17T04:13:59;100713.63;;;1.55;100.00
66560;BME280;53413;49.878;8.142;2024-03-17T04:16:26;100708.38;;;1.50;100.00
66560;BME280;53413;49.878;8.142;2024-03-17T04:18:51;100703.16;;;1.44;100.00
66560;BME280;53413;49.878;8.142;2024-03-17T04:21:17;100704.84;;;1.41;100.00
66560;BME280;53413;49.878;8.142;2024-03-17T04:23:42;100702.22;;;1.36;100.00
66560;BME280;53413;49.878;8.142;2024-03-17T04:26:09;100703.91;;;1.34;100.00
66560;BME280;53413;49.878;8.142;2024-03-17T04:28:35;100703.00;;;1.29;100.00
66560;BME280;53413;49.878;8.142;2024-03-17T04:31:05;100697.81;;;1.26;100.00
66560;BME280;53413;49.878;8.142;2024-03-17T04:33:34;100701.19;;;1.21;100.00
66560;BME280;53413;49.878;8.142;2024-03-17T04:35:59;100700.31;;;1.18;100.00
66560;BME280;53413;49.878;8.142;2024-03-17T04:38:25;100707.22;;;1.20;100.00
66560;BME280;53413;49.878;8.142;2024-03-17T04:40:51;100708.19;;;1.32;100.00
66560;BME280;53413;49.878;8.142;2024-03-17T04:43:22;100709.31;;;1.56;100.00
66560;BME280;53413;49.878;8.142;2024-03-17T04:45:47;100703.50;;;1.80;100.00
66560;BME280;53413;49.878;8.142;2024-03-17T04:48:14;100701.09;;;2.02;100.00
66560;BME280;53413;49.878;8.142;2024-03-17T04:50:40;100699.44;;;2.11;100.00
66560;BME280;53413;49.878;8.142;2024-03-17T04:53:05;100702.09;;;2.18;100.00
66560;BME280;53413;49.878;8.142;2024-03-17T04:55:31;100687.44;;;2.20;100.00
66560;BME280;53413;49.878;8.142;2024-03-17T04:57:56;100685.72;;;2.19;100.00
66560;BME280;53413;49.878;8.142;2024-03-17T05:00:21;100672.72;;;2.12;100.00
66560;BME280;53413;49.878;8.142;2024-03-17T05:02:47;100676.16;;;2.10;100.00
66560;BME280;53413;49.878;8.142;2024-03-17T05:05:13;100676.16;;;2.10;100.00
66560;BME280;53413;49.878;8.142;2024-03-17T05:07:38;100683.94;;;2.14;100.00
66560;BME280;53413;49.878;8.142;2024-03-17T05:10:04;100690.03;;;2.20;100.00
66560;BME280;53413;49.878;8.142;2024-03-17T05:12:31;100692.69;;;2.27;100.00
66560;BME280;53413;49.878;8.142;2024-03-17T05:14:56;100690.97;;;2.31;100.00
66560;BME280;53413;49.878;8.142;2024-03-17T05:17:21;100695.28;;;2.27;100.00
66560;BME280;53413;49.878;8.142;2024-03-17T05:19:47;100692.59;;;2.17;100.00
66560;BME280;53413;49.878;8.142;2024-03-17T05:22:12;100688.19;;;2.05;100.00
66560;BME280;53413;49.878;8.142;2024-03-17T05:24:37;100686.38;;;1.94;100.00
66560;BME280;53413;49.878;8.142;2024-03-17T05:27:03;100688.91;;;1.85;100.00
66560;BME280;53413;49.878;8.142;2024-03-17T05:29:28;100684.53;;;1.81;100.00
66560;BME280;53413;49.878;8.142;2024-03-17T05:31:54;100677.63;;;1.77;100.00
66560;BME280;53413;49.878;8.142;2024-03-17T05:34:19;100687.09;;;1.73;100.00
66560;BME280;53413;49.878;8.142;2024-03-17T05:36:44;100680.16;;;1.69;100.00
66560;BME280;53413;49.878;8.142;2024-03-17T05:39:11;100692.19;;;1.67;100.00
66560;BME280;53413;49.878;8.142;2024-03-17T05:41:37;100686.13;;;1.63;100.00
66560;BME280;53413;49.878;8.142;2024-03-17T05:44:02;100695.56;;;1.63;100.00
66560;BME280;53413;49.878;8.142;2024-03-17T05:46:29;100694.72;;;1.64;100.00
66560;BME280;53413;49.878;8.142;2024-03-17T05:48:54;100697.34;;;1.67;100.00
66560;BME280;53413;49.878;8.142;2024-03-17T05:51:20;100694.00;;;1.74;100.00
66560;BME280;53413;49.878;8.142;2024-03-17T05:53:46;100697.53;;;1.86;100.00
66560;BME280;53413;49.878;8.142;2024-03-17T05:56:11;100695.09;;;2.03;100.00
66560;BME280;53413;49.878;8.142;2024-03-17T05:58:38;100696.06;;;2.19;100.00
66560;BME280;53413;49.878;8.142;2024-03-17T06:01:04;100700.44;;;2.30;100.00
66560;BME280;53413;49.878;8.142;2024-03-17T06:03:30;100694.44;;;2.36;100.00
66560;BME280;53413;49.878;8.142;2024-03-17T06:05:58;100687.56;;;2.37;100.00
66560;BME280;53413;49.878;8.142;2024-03-17T06:08:24;100689.28;;;2.36;100.00
66560;BME280;53413;49.878;8.142;2024-03-17T06:10:50;100692.72;;;2.35;100.00
66560;BME280;53413;49.878;8.142;2024-03-17T06:13:15;100683.28;;;2.40;100.00
66560;BME280;53413;49.878;8.142;2024-03-17T06:15:43;100682.44;;;2.46;100.00
66560;BME280;53413;49.878;8.142;2024-03-17T06:18:11;100685.06;;;2.49;100.00
66560;BME280;53413;49.878;8.142;2024-03-17T06:20:43;100685.94;;;2.53;100.00
66560;BME280;53413;49.878;8.142;2024-03-17T06:23:09;100679.94;;;2.61;100.00
66560;BME280;53413;49.878;8.142;2024-03-17T06:28:07;100674.03;;;2.95;100.00
66560;BME280;53413;49.878;8.142;2024-03-17T06:30:32;100669.81;;;3.11;100.00
66560;BME280;53413;49.878;8.142;2024-03-17T06:32:58;100668.97;;;3.23;100.00
66560;BME280;53413;49.878;8.142;2024-03-17T06:35:23;100667.28;;;3.37;100.00
66560;BME280;53413;49.878;8.142;2024-03-17T06:37:52;100660.41;;;3.64;100.00
66560;BME280;53413;49.878;8.142;2024-03-17T06:40:18;100656.09;;;3.80;100.00
66560;BME280;53413;49.878;8.142;2024-03-17T06:42:43;100656.06;;;3.99;100.00
66560;BME280;53413;49.878;8.142;2024-03-17T06:45:09;100654.31;;;4.21;100.00
66560;BME280;53413;49.878;8.142;2024-03-17T06:47:38;100656.00;;;4.42;100.00
66560;BME280;53413;49.878;8.142;2024-03-17T06:50:05;100659.38;;;4.68;100.00
66560;BME280;53413;49.878;8.142;2024-03-17T06:52:31;100649.78;;;4.91;100.00
66560;BME280;53413;49.878;8.142;2024-03-17T06:54:57;100658.31;;;5.12;100.00
66560;BME280;53413;49.878;8.142;2024-03-17T06:57:26;100656.44;;;5.39;100.00
66560;BME280;53413;49.878;8.142;2024-03-17T06:59:51;100657.97;;;5.68;100.00
66560;BME280;53413;49.878;8.142;2024-03-17T07:02:17;100655.13;;;6.02;100.00
66560;BME280;53413;49.878;8.142;2024-03-17T07:04:46;100658.28;;;6.35;100.00
66560;BME280;53413;49.878;8.142;2024-03-17T07:07:13;100658.63;;;6.82;100.00
66560;BME280;53413;49.878;8.142;2024-03-17T07:09:39;100645.84;;;8.81;100.00
66560;BME280;53413;49.878;8.142;2024-03-17T07:12:06;100636.03;;;13.07;100.00
66560;BME280;53413;49.878;8.142;2024-03-17T07:14:32;100626.22;;;16.92;88.94
66560;BME280;53413;49.878;8.142;2024-03-17T07:16:57;100625.78;;;19.52;68.96
66560;BME280;53413;49.878;8.142;2024-03-17T07:19:22;100628.22;;;21.47;60.93
66560;BME280;53413;49.878;8.142;2024-03-17T07:21:48;100619.72;;;23.27;54.07
66560;BME280;53413;49.878;8.142;2024-03-17T07:24:13;100621.63;;;25.14;49.91
66560;BME280;53413;49.878;8.142;2024-03-17T07:26:38;100612.84;;;26.58;46.39
66560;BME280;53413;49.878;8.142;2024-03-17T07:29:04;100621.13;;;27.20;45.53
66560;BME280;53413;49.878;8.142;2024-03-17T07:31:29;100618.72;;;26.71;43.52
66560;BME280;53413;49.878;8.142;2024-03-17T07:33:54;100609.78;;;25.76;41.38
66560;BME280;53413;49.878;8.142;2024-03-17T07:36:20;100612.47;;;25.27;43.49
66560;BME280;53413;49.878;8.142;2024-03-17T07:38:47;100612.06;;;25.51;42.25
66560;BME280;53413;49.878;8.142;2024-03-17T07:41:12;100618.16;;;25.53;39.93
66560;BME280;53413;49.878;8.142;2024-03-17T07:43:38;100628.72;;;25.25;40.25
66560;BME280;53413;49.878;8.142;2024-03-17T07:46:05;100623.38;;;25.45;42.30
66560;BME280;53413;49.878;8.142;2024-03-17T07:48:32;100611.88;;;26.02;42.06
66560;BME280;53413;49.878;8.142;2024-03-17T07:51:08;100616.19;;;26.98;38.77
66560;BME280;53413;49.878;8.142;2024-03-17T07:53:37;100628.09;;;27.59;37.93
66560;BME280;53413;49.878;8.142;2024-03-17T07:56:06;100628.78;;;27.61;38.27
66560;BME280;53413;49.878;8.142;2024-03-17T07:58:35;100631.72;;;26.76;37.84
66560;BME280;53413;49.878;8.142;2024-03-17T08:01:02;100624.03;;;26.53;37.98
66560;BME280;53413;49.878;8.142;2024-03-17T08:03:29;100629.25;;;26.27;38.95
66560;BME280;53413;49.878;8.142;2024-03-17T08:05:55;100628.53;;;26.63;39.21
66560;BME280;53413;49.878;8.142;2024-03-17T08:08:20;100631.06;;;26.64;37.33
66560;BME280;53413;49.878;8.142;2024-03-17T08:10:46;100628.00;;;26.49;37.41
66560;BME280;53413;49.878;8.142;2024-03-17T08:13:15;100632.94;;;26.16;36.68
66560;BME280;53413;49.878;8.142;2024-03-17T08:15:42;100638.75;;;26.11;37.33
66560;BME280;53413;49.878;8.142;2024-03-17T08:18:14;100637.53;;;26.71;36.44
66560;BME280;53413;49.878;8.142;2024-03-17T08:20:40;100632.28;;;26.80;37.47
66560;BME280;53413;49.878;8.142;2024-03-17T08:23:06;100633.13;;;25.85;37.26
66560;BME280;53413;49.878;8.142;2024-03-17T08:25:32;100634.31;;;25.12;38.30
66560;BME280;53413;49.878;8.142;2024-03-17T08:27:58;100627.38;;;24.59;38.72
66560;BME280;53413;49.878;8.142;2024-03-17T08:30:23;100636.22;;;23.32;40.80
66560;BME280;53413;49.878;8.142;2024-03-17T08:32:49;100642.59;;;22.86;41.65
66560;BME280;53413;49.878;8.142;2024-03-17T08:35:14;100643.69;;;21.91;42.64
66560;BME280;53413;49.878;8.142;2024-03-17T08:37:40;100644.63;;;21.30;44.05
66560;BME280;53413;49.878;8.142;2024-03-17T08:40:05;100638.53;;;21.28;43.78
66560;BME280;53413;49.878;8.142;2024-03-17T08:42:32;100629.69;;;21.03;44.05
66560;BME280;53413;49.878;8.142;2024-03-17T08:44:57;100622.38;;;21.66;43.36
66560;BME280;53413;49.878;8.142;2024-03-17T08:47:22;100616.72;;;21.47;43.69
66560;BME280;53413;49.878;8.142;2024-03-17T08:49:50;100610.00;;;20.92;44.34
66560;BME280;53413;49.878;8.142;2024-03-17T08:52:16;100606.72;;;20.76;44.70
66560;BME280;53413;49.878;8.142;2024-03-17T08:54:42;100615.56;;;19.99;45.70
66560;BME280;53413;49.878;8.142;2024-03-17T08:57:10;100612.84;;;20.01;46.50
66560;BME280;53413;49.878;8.142;2024-03-17T08:59:36;100603.22;;;20.50;45.46
66560;BME280;53413;49.878;8.142;2024-03-17T09:02:02;100606.56;;;20.14;45.66
66560;BME280;53413;49.878;8.142;2024-03-17T09:04:28;100608.53;;;19.45;47.17
66560;BME280;53413;49.878;8.142;2024-03-17T09:06:54;100618.16;;;19.05;48.13
66560;BME280;53413;49.878;8.142;2024-03-17T09:09:21;100611.81;;;18.79;48.87
66560;BME280;53413;49.878;8.142;2024-03-17T09:11:46;100615.09;;;19.12;48.22
66560;BME280;53413;49.878;8.142;2024-03-17T09:14:12;100617.72;;;19.26;47.94
66560;BME280;53413;49.878;8.142;2024-03-17T09:16:37;100614.78;;;19.84;46.40
66560;BME280;53413;49.878;8.142;2024-03-17T09:19:02;100602.91;;;20.54;45.81
66560;BME280;53413;49.878;8.142;2024-03-17T09:21:28;100595.31;;;21.60;43.83
66560;BME280;53413;49.878;8.142;2024-03-17T09:23:53;100604.34;;;22.63;43.03
66560;BME280;53413;49.878;8.142;2024-03-17T09:26:19;100597.00;;;23.10;42.84
66560;BME280;53413;49.878;8.142;2024-03-17T09:28:44;100597.47;;;24.02;40.63
66560;BME280;53413;49.878;8.142;2024-03-17T09:31:10;100594.38;;;25.39;39.53
66560;BME280;53413;49.878;8.142;2024-03-17T09:33:36;100593.41;;;26.46;37.62
66560;BME280;53413;49.878;8.142;2024-03-17T09:36:04;100601.50;;;26.92;36.67
66560;BME280;53413;49.878;8.142;2024-03-17T09:38:31;100597.09;;;27.19;36.13
66560;BME280;53413;49.878;8.142;2024-03-17T09:40:57;100592.31;;;27.49;35.81
66560;BME280;53413;49.878;8.142;2024-03-17T09:43:24;100587.22;;;27.82;34.64
66560;BME280;53413;49.878;8.142;2024-03-17T09:45:50;100586.03;;;27.85;34.14
66560;BME280;53413;49.878;8.142;2024-03-17T09:48:20;100587.94;;;27.30;34.76
66560;BME280;53413;49.878;8.142;2024-03-17T09:50:50;100586.97;;;26.57;36.23
66560;BME280;53413;49.878;8.142;2024-03-17T09:53:22;100588.56;;;26.02;36.65
66560;BME280;53413;49.878;8.142;2024-03-17T09:55:48;100581.13;;;25.76;37.20
66560;BME280;53413;49.878;8.142;2024-03-17T09:58:17;100583.06;;;24.86;37.24
66560;BME280;53413;49.878;8.142;2024-03-17T10:00:43;100584.75;;;24.46;38.17
66560;BME280;53413;49.878;8.142;2024-03-17T10:03:09;100582.19;;;23.92;38.46
66560;BME280;53413;49.878;8.142;2024-03-17T10:05:34;100576.00;;;23.92;37.94
66560;BME280;53413;49.878;8.142;2024-03-17T10:07:59;100580.94;;;23.10;39.32
66560;BME280;53413;49.878;8.142;2024-03-17T10:10:25;100589.66;;;22.23;41.15
66560;BME280;53413;49.878;8.142;2024-03-17T10:12:51;100584.44;;;21.63;41.69
66560;BME280;53413;49.878;8.142;2024-03-17T10:15:17;100594.97;;;20.91;43.07
66560;BME280;53413;49.878;8.142;2024-03-17T10:17:44;100607.84;;;19.68;44.83
66560;BME280;53413;49.878;8.142;2024-03-17T10:20:19;100601.66;;;19.28;45.87
66560;BME280;53413;49.878;8.142;2024-03-17T10:25:28;100586.44;;;18.60;47.40
66560;BME280;53413;49.878;8.142;2024-03-17T10:27:57;100596.00;;;18.49;48.25
66560;BME280;53413;49.878;8.142;2024-03-17T10:30:23;100593.81;;;18.41;48.62
66560;BME280;53413;49.878;8.142;2024-03-17T10:32:58;100599.16;;;18.26;48.72
66560;BME280;53413;49.878;8.142;2024-03-17T10:37:57;100593.38;;;17.89;49.69
66560;BME280;53413;49.878;8.142;2024-03-17T10:40:24;100586.59;;;17.69;50.20
66560;BME280;53413;49.878;8.142;2024-03-17T10:42:50;100585.22;;;17.92;50.13
66560;BME280;53413;49.878;8.142;2024-03-17T10:45:15;100586.25;;;18.35;49.34
66560;BME280;53413;49.878;8.142;2024-03-17T10:47:43;100581.97;;;18.46;49.22
66560;BME280;53413;49.878;8.142;2024-03-17T10:50:19;100584.63;;;18.61;48.93
66560;BME280;53413;49.878;8.142;2024-03-17T10:52:47;100581.19;;;18.73;48.51
66560;BME280;53413;49.878;8.142;2024-03-17T10:55:45;100576.34;;;18.80;48.70
66560;BME280;53413;49.878;8.142;2024-03-17T10:58:23;100566.22;;;18.72;48.94
66560;BME280;53413;49.878;8.142;2024-03-17T11:00:53;100569.50;;;18.34;49.24
66560;BME280;53413;49.878;8.142;2024-03-17T11:03:21;100560.84;;;18.02;49.95
66560;BME280;53413;49.878;8.142;2024-03-17T11:05:48;100559.03;;;18.02;49.98
66560;BME280;53413;49.878;8.142;2024-03-17T11:08:16;100564.00;;;17.92;50.42
66560;BME280;53413;49.878;8.142;2024-03-17T11:10:49;100559.69;;;18.06;50.74
66560;BME280;53413;49.878;8.142;2024-03-17T11:15:50;100556.22;;;18.20;50.53
66560;BME280;53413;49.878;8.142;2024-03-17T11:23:42;100558.22;;;18.16;50.93
66560;BME280;53413;49.878;8.142;2024-03-17T11:26:08;100558.59;;;18.24;51.33
66560;BME280;53413;49.878;8.142;2024-03-17T11:31:40;100554.69;;;18.44;50.82
66560;BME280;53413;49.878;8.142;2024-03-17T11:34:25;100550.69;;;17.94;51.73
66560;BME280;53413;49.878;8.142;2024-03-17T11:36:51;100551.09;;;17.72;52.66
66560;BME280;53413;49.878;8.142;2024-03-17T11:39:16;100548.38;;;17.88;52.44
66560;BME280;53413;49.878;8.142;2024-03-17T11:41:52;100548.03;;;17.94;52.30
66560;BME280;53413;49.878;8.142;2024-03-17T11:46:55;100547.75;;;17.53;53.68
66560;BME280;53413;49.878;8.142;2024-03-17T11:49:28;100548.16;;;17.62;53.43
66560;BME280;53413;49.878;8.142;2024-03-17T11:51:57;100550.22;;;17.57;53.77
66560;BME280;53413;49.878;8.142;2024-03-17T11:54:24;100544.72;;;17.45;54.04
66560;BME280;53413;49.878;8.142;2024-03-17T11:56:53;100545.47;;;17.47;54.62
66560;BME280;53413;49.878;8.142;2024-03-17T11:59:19;100549.22;;;17.43;54.65
66560;BME280;53413;49.878;8.142;2024-03-17T12:01:49;100542.50;;;17.37;54.76
66560;BME280;53413;49.878;8.142;2024-03-17T12:04:16;100536.03;;;17.27;54.94
66560;BME280;53413;49.878;8.142;2024-03-17T12:06:59;100539.13;;;17.19;55.73
66560;BME280;53413;49.878;8.142;2024-03-17T12:09:27;100539.22;;;17.18;55.44
66560;BME280;53413;49.878;8.142;2024-03-17T12:12:03;100529.94;;;16.95;56.48
66560;BME280;53413;49.878;8.142;2024-03-17T12:14:32;100528.63;;;16.86;56.53
66560;BME280;53413;49.878;8.142;2024-03-17T12:17:03;100529.97;;;16.61;56.74
66560;BME280;53413;49.878;8.142;2024-03-17T12:19:30;100531.09;;;16.41;57.24
66560;BME280;53413;49.878;8.142;2024-03-17T12:21:57;100522.16;;;16.10;57.81
66560;BME280;53413;49.878;8.142;2024-03-17T12:24:24;100522.38;;;15.89;58.92
66560;BME280;53413;49.878;8.142;2024-03-17T12:26:51;100528.88;;;15.99;58.85
66560;BME280;53413;49.878;8.142;2024-03-17T12:29:27;100526.63;;;15.92;58.87
66560;BME280;53413;49.878;8.142;2024-03-17T12:31:58;100526.31;;;15.98;59.59
66560;BME280;53413;49.878;8.142;2024-03-17T12:34:25;100519.84;;;16.04;59.30
66560;BME280;53413;49.878;8.142;2024-03-17T12:36:52;100519.78;;;16.21;59.59
66560;BME280;53413;49.878;8.142;2024-03-17T12:39:20;100510.88;;;16.40;59.64
66560;BME280;53413;49.878;8.142;2024-03-17T12:44:30;100504.91;;;16.68;58.74
66560;BME280;53413;49.878;8.142;2024-03-17T12:46:59;100500.91;;;16.77;58.15
66560;BME280;53413;49.878;8.142;2024-03-17T12:49:29;100504.13;;;16.82;58.68
66560;BME280;53413;49.878;8.142;2024-03-17T12:51:55;100500.00;;;16.92;58.12
66560;BME280;53413;49.878;8.142;2024-03-17T12:54:25;100497.56;;;16.89;58.07
66560;BME280;53413;49.878;8.142;2024-03-17T12:56:52;100500.00;;;16.92;58.41
66560;BME280;53413;49.878;8.142;2024-03-17T12:59:47;100492.16;;;16.91;58.36
66560;BME280;53413;49.878;8.142;2024-03-17T13:02:31;100486.38;;;17.00;57.29
66560;BME280;53413;49.878;8.142;2024-03-17T13:05:07;100484.31;;;17.05;57.10
66560;BME280;53413;49.878;8.142;2024-03-17T13:07:32;100473.53;;;17.08;57.57
66560;BME280;53413;49.878;8.142;2024-03-17T13:09:58;100466.78;;;17.19;57.25
66560;BME280;53413;49.878;8.142;2024-03-17T13:12:23;100460.66;;;17.02;58.19